Terminal Aerodrome Forecast
Issued by NWS

Home | Current Version | Previous Version | Text Only | Print | Product List | Glossary On
Versions: 1 2 3 4 5 6 7 8 9 10 11 12 13 14 15 16 17 18 19 20
000
FTUS44 KBMX 182300
TAFTCL
TAF
KTCL 182320Z 1900/1924 33003KT P6SM BKN050
     FM190300 00000KT P6SM SCT035 SCT100 BKN250
     FM191500 02005KT P6SM SCT035 BKN100
     FM191800 36005KT P6SM VCSH SCT035 OVC050
     FM192100 36005KT 4SM SHRA BKN035 OVC050=

USA.gov is the U.S. government's official web portal to all federal, state and local government web resources and services.